Main page
METAR-TAF:

METAR-TAF

Airports :

Léopold Sédar Senghor International Airport

Dakar, Senegal

latitude: 14-44N, longitude: 017-30W, elevation: 27 m

Current weather observation

The report was made 10 hours and 21 minutes ago, at 11:00 UTC
Wind 8 kt from the North/Northwest
Temperature 30°C
Humidity 84%
Pressure 1015 hPa
Visibility 10 km or more
Scattered clouds at a height of 1500 ft

METAR: GOOY 201100Z 34008KT 9999 SCT015 30/27 Q1015

Time: 21:21 (21:21 UTC)

Forecast

The report was made 3 hours and 51 minutes ago, at 17:30 UTC
Forecast valid from 20 at 18 UTC to 21 at 24 UTC
Wind 10 kt from the North/Northwest
Visibility 10 km or more
Scattered clouds at a height of 1300 ft

TAF: GOOY 201730Z 2018/2124 34010KT 9999 SCT013

Weather observations and forecasts of more than 4000 airports (METAR and TAF reports).

The available stations are represented by yellow and red dots on the map.

Hover mouse over dot to see the name of the station.

Then click to see weather observations and forecasts.

To change the map : click on the green buttons with a black cross to zoom in, on the green button with a dash to zoom out, or on the green arrows for adjacent maps.


METAR-TAF: